createdAt,value
2023-02-25T00:00:35.992Z,86.07
2023-02-25T00:03:15.638Z,85.97
2023-02-25T00:05:43.428Z,86.00
2023-02-25T00:08:11.083Z,85.79
2023-02-25T00:10:38.725Z,86.07
2023-02-25T00:13:17.839Z,86.09
2023-02-25T00:15:46.010Z,86.12
2023-02-25T00:18:13.757Z,86.25
2023-02-25T00:20:41.428Z,86.07
2023-02-25T00:23:09.066Z,86.30
2023-02-25T00:25:36.791Z,85.90
2023-02-25T00:28:06.473Z,86.10
2023-02-25T00:30:35.400Z,86.43
2023-02-25T00:33:03.185Z,86.55
2023-02-25T00:35:31.138Z,86.52
2023-02-25T00:38:13.652Z,86.70
2023-02-25T00:40:43.966Z,86.51
2023-02-25T00:43:11.609Z,86.52
2023-02-25T00:45:42.611Z,86.64
2023-02-25T00:48:10.282Z,86.50
2023-02-25T00:50:39.746Z,86.27
2023-02-25T00:53:07.477Z,86.52
2023-02-25T00:55:35.218Z,86.59
2023-02-25T00:58:03.601Z,86.71
2023-02-25T01:00:35.899Z,86.78
2023-02-25T01:03:08.508Z,86.65
2023-02-25T01:05:41.283Z,86.76
2023-02-25T01:08:09.286Z,87.25
2023-02-25T01:10:36.989Z,86.88
2023-02-25T01:13:04.958Z,87.09
2023-02-25T01:15:32.996Z,87.27
2023-02-25T01:18:00.890Z,87.01
2023-02-25T01:20:29.953Z,86.98
2023-02-25T01:22:57.622Z,87.25
2023-02-25T01:25:25.673Z,87.44
2023-02-25T01:27:57.492Z,87.11
2023-02-25T01:30:25.183Z,87.44
2023-02-25T01:32:52.899Z,87.62
2023-02-25T01:35:20.736Z,87.92
2023-02-25T01:37:49.938Z,87.50
2023-02-25T01:40:18.113Z,87.84
2023-02-25T01:42:46.422Z,87.76
2023-02-25T01:45:17.564Z,87.89
2023-02-25T01:47:51.993Z,87.46
2023-02-25T01:50:22.752Z,87.80
2023-02-25T01:52:51.092Z,88.10
2023-02-25T01:55:18.892Z,88.39
2023-02-25T01:57:46.972Z,88.03
2023-02-25T02:00:18.074Z,88.28
2023-02-25T02:02:47.492Z,88.37
2023-02-25T02:05:15.816Z,88.20
2023-02-25T02:07:43.490Z,88.52
2023-02-25T02:10:12.055Z,88.64
2023-02-25T02:12:43.981Z,88.91
2023-02-25T02:15:15.045Z,88.66
2023-02-25T02:18:02.454Z,89.03
2023-02-25T02:20:54.113Z,88.71
2023-02-25T02:23:56.013Z,88.79
2023-02-25T02:26:31.316Z,88.66
2023-02-25T02:29:26.572Z,88.60
2023-02-25T02:32:17.777Z,88.77
2023-02-25T02:35:13.259Z,88.37
2023-02-25T02:37:52.871Z,88.75
2023-02-25T02:40:33.125Z,88.77
2023-02-25T02:43:09.806Z,88.82
2023-02-25T02:45:45.606Z,88.56
2023-02-25T02:48:20.680Z,88.79
2023-02-25T02:50:56.192Z,88.83
2023-02-25T02:53:40.097Z,88.82
2023-02-25T02:56:12.315Z,88.88
2023-02-25T02:58:45.979Z,88.97
2023-02-25T03:01:34.776Z,88.85
2023-02-25T03:04:07.773Z,88.88
2023-02-25T03:06:40.378Z,88.98
2023-02-25T03:09:14.781Z,88.96
2023-02-25T03:11:42.971Z,89.17
2023-02-25T03:14:12.986Z,88.87
2023-02-25T03:16:46.885Z,89.04
2023-02-25T03:19:31.352Z,89.17
2023-02-25T03:22:06.817Z,89.24
2023-02-25T03:24:45.207Z,89.57
2023-02-25T03:27:24.710Z,89.50
2023-02-25T03:29:57.424Z,89.43
2023-02-25T03:32:28.195Z,89.48
2023-02-25T03:34:58.065Z,89.44
2023-02-25T03:37:29.407Z,89.86
2023-02-25T03:40:01.501Z,89.14
2023-02-25T03:42:34.005Z,90.14
2023-02-25T03:45:05.598Z,89.81
2023-02-25T03:47:37.207Z,89.52
2023-02-25T03:50:12.460Z,89.88
2023-02-25T03:52:41.635Z,89.78
2023-02-25T03:55:17.628Z,89.71
2023-02-25T03:57:50.717Z,89.71
2023-02-25T04:00:38.832Z,89.56
2023-02-25T04:03:06.594Z,89.61
2023-02-25T04:05:35.943Z,89.51
2023-02-25T04:08:04.642Z,89.73
2023-02-25T04:10:34.863Z,89.51
2023-02-25T04:13:02.740Z,89.91
2023-02-25T04:15:30.550Z,89.70
2023-02-25T04:17:58.200Z,89.62
2023-02-25T04:20:26.357Z,89.67
2023-02-25T04:22:53.987Z,89.65
2023-02-25T04:25:21.630Z,89.67
2023-02-25T04:27:49.361Z,90.01
2023-02-25T04:30:17.430Z,89.94
2023-02-25T04:32:45.232Z,90.18
2023-02-25T04:35:13.646Z,90.26
2023-02-25T04:37:42.619Z,89.96
2023-02-25T04:40:15.187Z,89.99
2023-02-25T04:42:43.270Z,90.02
2023-02-25T04:45:12.355Z,90.02
2023-02-25T04:47:40.247Z,89.86
2023-02-25T04:50:10.302Z,90.23
2023-02-25T04:52:37.963Z,89.88
2023-02-25T04:55:06.255Z,89.78
2023-02-25T04:57:33.885Z,90.02
2023-02-25T05:00:01.523Z,89.99
2023-02-25T05:02:29.355Z,90.22
2023-02-25T05:04:57.048Z,90.45
2023-02-25T05:07:24.979Z,90.30
2023-02-25T05:09:52.710Z,90.45
2023-02-25T05:12:20.434Z,90.31
2023-02-25T05:14:48.088Z,90.27
2023-02-25T05:17:15.817Z,90.40
2023-02-25T05:19:43.473Z,90.34
2023-02-25T05:22:11.111Z,90.43
2023-02-25T05:24:39.104Z,90.55
2023-02-25T05:27:06.907Z,90.23
2023-02-25T05:29:36.220Z,90.36
2023-02-25T05:32:04.509Z,90.43
2023-02-25T05:34:32.221Z,90.37
2023-02-25T05:36:59.887Z,90.65
2023-02-25T05:39:27.790Z,90.53
2023-02-25T05:41:55.649Z,90.72
2023-02-25T05:44:23.237Z,90.55
2023-02-25T05:46:50.922Z,90.73
2023-02-25T05:49:18.588Z,90.47
2023-02-25T05:51:46.252Z,90.41
2023-02-25T05:54:13.889Z,90.64
2023-02-25T05:56:41.752Z,90.53
2023-02-25T05:59:12.879Z,90.41
2023-02-25T06:01:41.909Z,90.55
2023-02-25T06:04:09.932Z,90.65
2023-02-25T06:06:37.837Z,90.50
2023-02-25T06:09:09.450Z,90.40
2023-02-25T06:11:37.200Z,90.68
2023-02-25T06:14:04.841Z,90.62
2023-02-25T06:16:33.021Z,90.37
2023-02-25T06:19:01.750Z,90.45
2023-02-25T06:21:30.102Z,90.19
2023-02-25T06:23:57.775Z,90.26
2023-02-25T06:26:25.662Z,90.39
2023-02-25T06:28:54.127Z,90.32
2023-02-25T06:31:24.496Z,90.32
2023-02-25T06:33:55.061Z,90.64
2023-02-25T06:36:23.498Z,90.45
2023-02-25T06:38:51.774Z,90.71
2023-02-25T06:41:21.818Z,90.49
2023-02-25T06:43:52.726Z,90.64
2023-02-25T06:46:23.963Z,90.43
2023-02-25T06:48:52.335Z,90.70
2023-02-25T06:51:19.998Z,90.70
2023-02-25T06:53:47.838Z,90.67
2023-02-25T06:56:16.339Z,90.45
2023-02-25T06:58:43.998Z,90.71
2023-02-25T07:01:15.035Z,90.58
2023-02-25T07:03:43.623Z,90.77
2023-02-25T07:06:12.076Z,90.54
2023-02-25T07:08:39.780Z,90.67
2023-02-25T07:11:17.458Z,90.45
2023-02-25T07:13:49.566Z,90.71
2023-02-25T07:16:17.725Z,90.60
2023-02-25T07:18:47.102Z,90.29
2023-02-25T07:21:15.976Z,91.05
2023-02-25T07:23:43.809Z,90.69
2023-02-25T07:26:13.370Z,90.79
2023-02-25T07:28:41.895Z,90.83
2023-02-25T07:31:18.430Z,90.78
2023-02-25T07:33:46.688Z,90.51
2023-02-25T07:36:15.526Z,90.29
2023-02-25T07:38:44.029Z,90.66
2023-02-25T07:41:14.119Z,90.43
2023-02-25T07:43:42.512Z,90.41
2023-02-25T07:46:10.865Z,90.57
2023-02-25T07:48:39.285Z,90.69
2023-02-25T07:51:08.418Z,90.28
2023-02-25T07:53:36.329Z,90.46
2023-02-25T07:56:06.427Z,90.34
2023-02-25T07:58:34.973Z,90.55
2023-02-25T08:01:27.520Z,90.30
2023-02-25T08:04:00.321Z,90.38
2023-02-25T08:06:28.185Z,90.41
2023-02-25T08:08:56.303Z,90.46
2023-02-25T08:11:26.153Z,90.65
2023-02-25T08:13:54.509Z,90.77
2023-02-25T08:16:23.021Z,90.54
2023-02-25T08:18:52.891Z,90.00
2023-02-25T08:21:23.796Z,90.19
2023-02-25T08:23:53.564Z,90.15
2023-02-25T08:26:23.057Z,90.06
2023-02-25T08:28:51.744Z,90.22
2023-02-25T08:31:21.997Z,90.20
2023-02-25T08:33:52.596Z,90.29
2023-02-25T08:36:23.357Z,90.29
2023-02-25T08:38:51.888Z,90.21
2023-02-25T08:41:21.701Z,90.12
2023-02-25T08:43:52.079Z,90.28
2023-02-25T08:46:21.512Z,90.04
2023-02-25T08:48:51.166Z,89.92
2023-02-25T08:51:19.778Z,89.88
2023-02-25T08:53:47.450Z,89.64
2023-02-25T08:56:16.496Z,89.46
2023-02-25T08:58:44.708Z,89.32
2023-02-25T09:01:15.262Z,89.18
2023-02-25T09:03:52.643Z,89.09
2023-02-25T09:06:29.252Z,89.07
2023-02-25T09:08:57.190Z,88.98
2023-02-25T09:11:26.351Z,89.00
2023-02-25T09:13:54.748Z,88.52
2023-02-25T09:16:22.457Z,88.41
2023-02-25T09:18:51.678Z,87.44
2023-02-25T09:21:20.348Z,86.68
2023-02-25T09:23:51.114Z,85.87
2023-02-25T09:26:21.084Z,84.71
2023-02-25T09:28:49.354Z,85.13
2023-02-25T09:31:18.243Z,83.95
2023-02-25T09:33:46.036Z,83.37
2023-02-25T09:36:16.434Z,83.08
2023-02-25T09:38:45.941Z,82.33
2023-02-25T09:41:25.740Z,82.25
2023-02-25T09:44:06.734Z,81.45
2023-02-25T09:46:38.394Z,82.10
2023-02-25T09:49:15.425Z,82.29
2023-02-25T09:51:52.909Z,81.94
2023-02-25T09:54:29.975Z,82.39
2023-02-25T09:57:01.157Z,82.93
2023-02-25T09:59:29.472Z,83.34
2023-02-25T10:02:03.765Z,83.56
2023-02-25T10:05:03.083Z,83.56
2023-02-25T10:07:36.334Z,83.90
2023-02-25T10:10:23.757Z,84.29
2023-02-25T10:13:13.183Z,84.41
2023-02-25T10:16:07.019Z,85.04
2023-02-25T10:18:37.727Z,85.29
2023-02-25T10:21:32.964Z,85.47
2023-02-25T10:24:28.328Z,85.36
2023-02-25T10:27:03.314Z,85.33
2023-02-25T10:29:46.456Z,85.47
2023-02-25T10:32:24.221Z,85.42
2023-02-25T10:34:59.940Z,85.21
2023-02-25T10:37:36.105Z,85.43
2023-02-25T10:40:10.880Z,85.67
2023-02-25T10:42:38.708Z,85.81
2023-02-25T10:45:15.001Z,85.65
2023-02-25T10:47:47.619Z,85.92
2023-02-25T10:50:38.853Z,85.71
2023-02-25T10:53:18.513Z,85.84
2023-02-25T10:55:51.917Z,85.66
2023-02-25T10:58:25.447Z,85.65
2023-02-25T11:01:04.819Z,85.56
2023-02-25T11:03:41.789Z,85.77
2023-02-25T11:06:22.144Z,85.83
2023-02-25T11:08:53.497Z,85.83
2023-02-25T11:11:24.698Z,85.93
2023-02-25T11:14:03.457Z,86.30
2023-02-25T11:16:35.467Z,86.32
2023-02-25T11:19:22.859Z,86.27
2023-02-25T11:21:51.556Z,86.11
2023-02-25T11:24:28.137Z,85.90
2023-02-25T11:26:57.102Z,86.02
2023-02-25T11:29:32.847Z,85.88
2023-02-25T11:32:09.177Z,85.98
2023-02-25T11:34:50.563Z,85.71
2023-02-25T11:37:43.296Z,85.91
2023-02-25T11:40:29.302Z,85.77
2023-02-25T11:43:06.317Z,86.21
2023-02-25T11:45:56.792Z,85.30
2023-02-25T11:48:26.213Z,84.92
2023-02-25T11:50:57.672Z,84.48
2023-02-25T11:54:14.088Z,85.01
2023-02-25T11:56:48.587Z,84.62
2023-02-25T11:59:37.265Z,84.85
2023-02-25T12:02:31.449Z,84.91
2023-02-25T12:05:32.155Z,84.89
2023-02-25T12:08:13.718Z,85.49
2023-02-25T12:10:52.289Z,85.56
2023-02-25T12:13:38.231Z,85.87
2023-02-25T12:16:08.936Z,85.86
2023-02-25T12:19:11.048Z,85.92
2023-02-25T12:22:16.023Z,86.14
2023-02-25T12:24:52.550Z,86.23
2023-02-25T12:27:43.488Z,85.97
2023-02-25T12:30:17.018Z,85.62
2023-02-25T12:33:14.198Z,85.53
2023-02-25T12:36:12.381Z,85.08
2023-02-25T12:38:55.063Z,84.95
2023-02-25T12:41:45.747Z,84.62
2023-02-25T12:44:32.380Z,84.74
2023-02-25T12:47:20.273Z,84.52
2023-02-25T12:50:00.180Z,84.02
2023-02-25T12:52:59.329Z,84.12
2023-02-25T12:56:04.285Z,83.74
2023-02-25T12:58:55.239Z,83.80
2023-02-25T13:01:29.874Z,83.29
2023-02-25T13:03:57.694Z,82.90
2023-02-25T13:06:28.437Z,83.08
2023-02-25T13:09:36.089Z,82.46
2023-02-25T13:12:41.517Z,82.64
2023-02-25T13:15:20.566Z,82.30
2023-02-25T13:18:04.228Z,81.61
2023-02-25T13:20:44.216Z,81.81
2023-02-25T13:23:44.032Z,81.33
2023-02-25T13:26:47.366Z,80.34
2023-02-25T13:35:01.352Z,83.36
2023-02-25T13:37:54.916Z,83.93
2023-02-25T13:41:00.559Z,84.73
2023-02-25T13:43:43.276Z,85.04
2023-02-25T13:46:17.246Z,85.79
2023-02-25T13:49:13.245Z,86.06
2023-02-25T13:52:07.437Z,86.35
2023-02-25T13:54:43.957Z,87.62
2023-02-25T13:57:26.868Z,87.51
2023-02-25T14:00:28.230Z,87.65
2023-02-25T14:03:15.156Z,87.16
2023-02-25T14:06:12.474Z,87.59
2023-02-25T14:09:07.927Z,87.80
2023-02-25T14:12:12.639Z,87.89
2023-02-25T14:15:10.364Z,87.78
2023-02-25T14:18:02.323Z,88.39
2023-02-25T14:20:39.194Z,87.86
2023-02-25T14:23:28.488Z,88.32
2023-02-25T14:26:23.661Z,88.16
2023-02-25T14:29:14.847Z,88.43
2023-02-25T14:32:00.795Z,88.35
2023-02-25T14:34:46.143Z,88.75
2023-02-25T14:37:22.766Z,88.65
2023-02-25T14:40:22.025Z,88.57
2023-02-25T14:43:17.460Z,88.60
2023-02-25T14:45:53.274Z,88.83
2023-02-25T14:48:38.981Z,88.97
2023-02-25T14:51:34.024Z,89.00
2023-02-25T14:54:07.341Z,88.77
2023-02-25T14:57:02.391Z,88.52
2023-02-25T14:59:55.493Z,88.67
2023-02-25T15:02:35.569Z,88.57
2023-02-25T15:05:42.511Z,88.15
2023-02-25T15:08:28.650Z,88.77
2023-02-25T15:11:26.069Z,88.43
2023-02-25T15:14:05.617Z,88.62
2023-02-25T15:16:43.287Z,88.78
2023-02-25T15:19:40.850Z,89.12
2023-02-25T15:22:17.057Z,89.60
2023-02-25T15:24:45.555Z,89.64
2023-02-25T15:27:43.447Z,89.03
2023-02-25T15:30:13.063Z,89.85
2023-02-25T15:32:50.892Z,89.32
2023-02-25T15:35:36.735Z,89.18
2023-02-25T15:38:13.509Z,89.85
2023-02-25T15:40:53.485Z,89.96
2023-02-25T15:43:23.954Z,89.92
2023-02-25T15:45:54.633Z,90.23
2023-02-25T15:48:33.129Z,90.59
2023-02-25T15:51:02.553Z,90.24
2023-02-25T15:53:30.296Z,89.94
2023-02-25T15:56:04.045Z,89.35
2023-02-25T15:58:31.819Z,89.18
2023-02-25T16:01:05.599Z,88.86
2023-02-25T16:03:34.748Z,88.58
2023-02-25T16:06:13.906Z,89.37
2023-02-25T16:08:53.455Z,89.11
2023-02-25T16:11:44.587Z,89.50
2023-02-25T16:14:18.896Z,89.28
2023-02-25T16:16:56.592Z,88.82
2023-02-25T16:19:33.479Z,88.59
2023-02-25T16:22:07.633Z,88.65
2023-02-25T16:24:37.222Z,89.17
2023-02-25T16:27:12.742Z,89.32
2023-02-25T16:29:40.452Z,89.47
2023-02-25T16:32:11.260Z,89.63
2023-02-25T16:35:15.720Z,89.49
2023-02-25T16:37:57.038Z,89.38
2023-02-25T16:40:31.433Z,90.17
2023-02-25T16:42:59.688Z,90.07
2023-02-25T16:45:35.167Z,89.95
2023-02-25T16:48:07.582Z,89.56
2023-02-25T16:50:36.613Z,89.32
2023-02-25T16:53:04.682Z,89.19
2023-02-25T16:55:40.527Z,89.34
2023-02-25T16:58:14.110Z,89.82
2023-02-25T17:00:57.910Z,90.19
2023-02-25T17:03:33.135Z,90.07
2023-02-25T17:06:14.513Z,90.04
2023-02-25T17:08:47.554Z,90.18
2023-02-25T17:11:20.123Z,89.93
2023-02-25T17:13:50.167Z,89.72
2023-02-25T17:16:34.725Z,89.84
2023-02-25T17:19:05.611Z,89.86
2023-02-25T17:21:39.240Z,90.39
2023-02-25T17:24:13.429Z,90.29
2023-02-25T17:26:47.245Z,90.33
2023-02-25T17:29:16.772Z,90.15
2023-02-25T17:31:52.693Z,89.98
2023-02-25T17:34:30.923Z,90.11
2023-02-25T17:37:03.218Z,89.95
2023-02-25T17:39:31.294Z,89.92
2023-02-25T17:41:58.988Z,89.79
2023-02-25T17:44:42.657Z,90.31
2023-02-25T17:47:18.926Z,90.68
2023-02-25T17:49:47.527Z,90.84
2023-02-25T17:52:26.161Z,90.69
2023-02-25T17:54:59.520Z,90.89
2023-02-25T17:57:29.552Z,90.79
2023-02-25T18:00:13.996Z,90.48
2023-02-25T18:02:45.423Z,90.58
2023-02-25T18:05:13.235Z,90.48
2023-02-25T18:07:42.608Z,90.72
2023-02-25T18:10:25.590Z,90.85
2023-02-25T18:12:55.306Z,90.96
2023-02-25T18:15:24.838Z,90.80
2023-02-25T18:17:58.278Z,91.46
2023-02-25T18:20:33.876Z,91.33
2023-02-25T18:23:06.793Z,91.16
2023-02-25T18:25:35.980Z,91.85
2023-02-25T18:28:06.464Z,92.09
2023-02-25T18:30:34.145Z,91.73
2023-02-25T18:33:01.804Z,91.96
2023-02-25T18:35:31.866Z,91.79
2023-02-25T18:37:59.981Z,91.86
2023-02-25T18:40:30.913Z,92.01
2023-02-25T18:43:00.039Z,92.14
2023-02-25T18:45:29.753Z,92.26
2023-02-25T18:47:57.590Z,92.51
2023-02-25T18:50:25.555Z,92.24
2023-02-25T18:52:54.005Z,92.28
2023-02-25T18:55:25.622Z,92.07
2023-02-25T18:57:54.200Z,92.12
2023-02-25T19:00:24.682Z,92.07
2023-02-25T19:03:04.133Z,92.07
2023-02-25T19:05:31.951Z,91.61
2023-02-25T19:08:00.450Z,91.75
2023-02-25T19:10:30.855Z,91.82
2023-02-25T19:13:08.172Z,91.79
2023-02-25T19:15:35.842Z,91.90
2023-02-25T19:18:03.750Z,92.01
2023-02-25T19:20:31.515Z,91.78
2023-02-25T19:22:59.188Z,91.78
2023-02-25T19:25:29.842Z,92.07
2023-02-25T19:27:58.207Z,91.93
2023-02-25T19:30:33.953Z,91.85
2023-02-25T19:33:04.855Z,91.79
2023-02-25T19:35:35.834Z,91.93
2023-02-25T19:38:04.899Z,91.77
2023-02-25T19:40:33.513Z,91.64
2023-02-25T19:43:01.564Z,91.61
2023-02-25T19:45:29.276Z,91.60
2023-02-25T19:47:57.672Z,91.71
2023-02-25T19:50:26.580Z,91.71
2023-02-25T19:52:55.943Z,91.49
2023-02-25T19:55:23.689Z,91.88
2023-02-25T19:57:51.430Z,91.24
2023-02-25T20:00:22.643Z,91.56
2023-02-25T20:02:52.905Z,91.46
2023-02-25T20:05:22.400Z,91.39
2023-02-25T20:07:51.111Z,91.87
2023-02-25T20:10:19.380Z,91.25
2023-02-25T20:12:47.940Z,91.53
2023-02-25T20:15:18.989Z,91.21
2023-02-25T20:17:47.564Z,91.17
2023-02-25T20:20:16.098Z,91.17
2023-02-25T20:22:44.164Z,91.31
2023-02-25T20:25:13.487Z,91.18
2023-02-25T20:27:43.612Z,90.83
2023-02-25T20:30:15.274Z,91.24
2023-02-25T20:32:46.548Z,91.21
2023-02-25T20:35:21.099Z,91.36
2023-02-25T20:38:23.552Z,91.35
2023-02-25T20:40:51.329Z,91.48
2023-02-25T20:43:19.214Z,90.88
2023-02-25T20:45:47.459Z,91.13
2023-02-25T20:48:30.395Z,90.88
2023-02-25T20:50:58.735Z,91.05
2023-02-25T20:53:26.578Z,90.95
2023-02-25T20:55:57.218Z,90.71
2023-02-25T20:58:24.899Z,90.87
2023-02-25T21:00:52.682Z,90.46
2023-02-25T21:03:20.319Z,90.24
2023-02-25T21:05:48.081Z,90.06
2023-02-25T21:08:15.773Z,89.78
2023-02-25T21:10:43.558Z,90.16
2023-02-25T21:13:11.299Z,90.21
2023-02-25T21:15:39.053Z,90.40
2023-02-25T21:18:06.901Z,89.98
2023-02-25T21:20:34.554Z,89.86
2023-02-25T21:23:02.291Z,90.01
2023-02-25T21:25:31.071Z,90.02
2023-02-25T21:27:58.817Z,89.97
2023-02-25T21:30:26.797Z,89.97
2023-02-25T21:32:54.998Z,90.10
2023-02-25T21:35:25.159Z,90.21
2023-02-25T21:37:52.942Z,89.97
2023-02-25T21:40:21.179Z,89.97
2023-02-25T21:42:50.587Z,90.09
2023-02-25T21:45:18.305Z,90.04
2023-02-25T21:47:46.252Z,89.87
2023-02-25T21:50:13.915Z,89.96
2023-02-25T21:52:41.555Z,89.46
2023-02-25T21:55:09.851Z,89.52
2023-02-25T21:57:38.441Z,89.72
2023-02-25T22:00:10.410Z,89.80
2023-02-25T22:02:39.816Z,89.83
2023-02-25T22:05:07.927Z,89.21
2023-02-25T22:07:35.566Z,89.33
2023-02-25T22:10:03.643Z,89.62
2023-02-25T22:12:31.323Z,89.36
2023-02-25T22:14:58.947Z,89.06
2023-02-25T22:17:26.816Z,89.07
2023-02-25T22:19:54.544Z,89.17
2023-02-25T22:22:22.194Z,88.98
2023-02-25T22:24:49.818Z,88.72
2023-02-25T22:27:17.452Z,89.03
2023-02-25T22:29:45.091Z,88.87
2023-02-25T22:32:12.928Z,89.22
2023-02-25T22:34:40.680Z,89.05
2023-02-25T22:37:08.335Z,89.20
2023-02-25T22:39:36.100Z,89.25
2023-02-25T22:42:03.968Z,89.61
2023-02-25T22:44:31.771Z,89.54
2023-02-25T22:46:59.373Z,89.39
2023-02-25T22:49:27.098Z,89.14
2023-02-25T22:51:54.733Z,89.17
2023-02-25T22:54:22.552Z,89.05
2023-02-25T22:56:50.200Z,88.91
2023-02-25T22:59:17.948Z,88.83
2023-02-25T23:01:45.646Z,88.61
2023-02-25T23:04:13.997Z,88.15
2023-02-25T23:06:44.423Z,88.22
2023-02-25T23:09:14.401Z,88.16
2023-02-25T23:11:44.074Z,87.59
2023-02-25T23:14:12.401Z,87.83
2023-02-25T23:16:42.503Z,88.07
2023-02-25T23:19:13.962Z,87.88
2023-02-25T23:21:41.932Z,88.12
2023-02-25T23:24:15.971Z,87.80
2023-02-25T23:26:45.225Z,87.92
2023-02-25T23:29:13.542Z,87.80
2023-02-25T23:31:45.868Z,87.45
2023-02-25T23:34:25.995Z,87.35
2023-02-25T23:36:57.403Z,87.18
2023-02-25T23:39:25.617Z,87.61
2023-02-25T23:41:53.467Z,87.78
2023-02-25T23:44:21.236Z,88.04
2023-02-25T23:46:48.902Z,87.95
2023-02-25T23:49:17.828Z,87.86
2023-02-25T23:51:47.270Z,87.69
2023-02-25T23:54:19.123Z,87.75
2023-02-25T23:56:47.865Z,87.92
2023-02-25T23:59:16.102Z,88.19
